createdAt,value
2019-04-16T00:02:18.744Z,8.57
2019-04-16T00:05:09.479Z,8.60
2019-04-16T00:07:47.229Z,8.80
2019-04-16T00:10:45.298Z,6.40
2019-04-16T00:13:34.045Z,8.60
2019-04-16T00:16:03.907Z,9.27
2019-04-16T00:18:33.759Z,8.97
2019-04-16T00:21:25.601Z,7.13
2019-04-16T00:24:18.614Z,8.20
2019-04-16T00:26:51.795Z,8.00
2019-04-16T00:29:21.619Z,8.07
2019-04-16T00:32:07.911Z,7.73
2019-04-16T00:34:36.519Z,8.67
2019-04-16T00:37:06.190Z,7.83
2019-04-16T00:39:36.325Z,8.33
2019-04-16T00:42:06.027Z,9.53
2019-04-16T00:44:35.951Z,8.57
2019-04-16T00:47:05.827Z,8.37
2019-04-16T00:49:37.831Z,8.33
2019-04-16T00:52:07.384Z,8.70
2019-04-16T00:54:39.299Z,7.30
2019-04-16T00:57:08.860Z,7.43
2019-04-16T00:59:38.775Z,9.30
2019-04-16T01:02:08.820Z,8.70
2019-04-16T01:04:39.015Z,8.33
2019-04-16T01:07:08.905Z,8.40
2019-04-16T01:09:38.790Z,8.83
2019-04-16T01:12:08.690Z,9.10
2019-04-16T01:14:38.376Z,7.77
2019-04-16T01:17:08.025Z,6.70
2019-04-16T01:19:38.277Z,9.83
2019-04-16T01:22:09.166Z,8.47
2019-04-16T01:24:39.311Z,8.40
2019-04-16T01:27:09.910Z,6.20
2019-04-16T01:29:39.841Z,7.90
2019-04-16T01:32:33.798Z,10.03
2019-04-16T01:35:23.641Z,8.37
2019-04-16T01:38:10.632Z,7.20
2019-04-16T01:40:55.361Z,9.13
2019-04-16T01:43:25.751Z,9.07
2019-04-16T01:46:00.728Z,9.87
2019-04-16T01:48:27.823Z,10.67
2019-04-16T01:50:57.762Z,8.67
2019-04-16T01:53:27.652Z,8.47
2019-04-16T01:55:57.734Z,8.37
2019-04-16T01:58:27.910Z,7.53
2019-04-16T02:00:57.724Z,9.33
2019-04-16T02:03:27.520Z,9.87
2019-04-16T02:05:57.420Z,10.80
2019-04-16T02:08:28.297Z,8.93
2019-04-16T02:10:58.690Z,10.90
2019-04-16T02:13:28.402Z,9.93
2019-04-16T02:15:58.305Z,6.33
2019-04-16T02:18:29.718Z,9.77
2019-04-16T02:20:59.927Z,11.23
2019-04-16T02:23:30.132Z,5.90
2019-04-16T02:25:59.917Z,10.20
2019-04-16T02:28:30.168Z,6.63
2019-04-16T02:31:00.943Z,8.73
2019-04-16T02:33:33.083Z,9.60
2019-04-16T02:36:02.929Z,10.13
2019-04-16T02:38:32.780Z,9.13
2019-04-16T02:41:02.522Z,8.60
2019-04-16T02:43:40.998Z,12.10
2019-04-16T02:46:09.698Z,9.07
2019-04-16T02:48:39.568Z,8.63
2019-04-16T02:51:21.378Z,9.33
2019-04-16T02:53:59.798Z,9.57
2019-04-16T02:57:03.737Z,9.27
2019-04-16T02:59:37.473Z,9.77
2019-04-16T03:02:22.793Z,8.23
2019-04-16T03:04:58.441Z,10.73
2019-04-16T03:07:28.339Z,10.17
2019-04-16T03:10:01.642Z,8.90
2019-04-16T03:12:29.483Z,8.00
2019-04-16T03:15:01.217Z,10.23
2019-04-16T03:17:43.986Z,10.60
2019-04-16T03:20:15.965Z,8.80
2019-04-16T03:22:45.801Z,9.10
2019-04-16T03:25:15.451Z,9.43
2019-04-16T03:27:45.365Z,9.67
2019-04-16T03:30:15.738Z,9.37
2019-04-16T03:32:51.095Z,8.67
2019-04-16T03:35:25.152Z,10.00
2019-04-16T03:37:52.349Z,7.40
2019-04-16T03:40:25.591Z,8.20
2019-04-16T03:42:53.431Z,9.13
2019-04-16T03:45:23.283Z,7.83
2019-04-16T03:47:53.167Z,7.17
2019-04-16T03:50:23.091Z,7.97
2019-04-16T03:52:52.895Z,8.67
2019-04-16T03:55:26.295Z,6.63
2019-04-16T03:57:54.260Z,7.23
2019-04-16T04:00:24.610Z,8.13
2019-04-16T04:02:55.338Z,9.53
2019-04-16T04:05:25.811Z,9.13
2019-04-16T04:07:55.864Z,6.37
2019-04-16T04:10:30.768Z,8.03
2019-04-16T04:12:57.431Z,8.57
2019-04-16T04:15:27.305Z,9.90
2019-04-16T04:17:57.183Z,9.53
2019-04-16T04:20:27.110Z,7.37
2019-04-16T04:22:57.832Z,8.27
2019-04-16T04:25:28.039Z,10.10
2019-04-16T04:27:57.961Z,8.03
2019-04-16T04:30:28.939Z,8.73
2019-04-16T04:32:59.351Z,10.70
2019-04-16T04:35:29.281Z,9.10
2019-04-16T04:38:00.738Z,6.83
2019-04-16T04:40:43.758Z,9.83
2019-04-16T04:43:02.093Z,9.27
2019-04-16T04:45:31.926Z,8.03
2019-04-16T04:48:01.891Z,10.10
2019-04-16T04:50:32.471Z,9.23
2019-04-16T04:53:03.019Z,10.13
2019-04-16T04:55:32.729Z,11.33
2019-04-16T04:58:03.340Z,10.37
2019-04-16T05:00:33.889Z,10.10
2019-04-16T05:03:03.619Z,11.10
2019-04-16T05:05:38.345Z,8.20
2019-04-16T05:08:08.111Z,8.33
2019-04-16T05:10:42.810Z,8.53
2019-04-16T05:13:09.170Z,8.67
2019-04-16T05:15:38.865Z,10.47
2019-04-16T05:18:09.717Z,9.33
2019-04-16T05:20:39.985Z,9.13
2019-04-16T05:23:09.985Z,8.27
2019-04-16T05:25:40.053Z,10.63
2019-04-16T05:28:12.050Z,9.47
2019-04-16T05:30:41.345Z,9.40
2019-04-16T05:33:11.039Z,8.37
2019-04-16T05:35:41.451Z,9.70
2019-04-16T05:38:12.097Z,10.30
2019-04-16T05:40:41.801Z,8.40
2019-04-16T05:43:11.662Z,9.43
2019-04-16T05:45:42.043Z,8.80
2019-04-16T05:48:11.834Z,7.80
2019-04-16T05:50:41.554Z,8.43
2019-04-16T05:53:13.185Z,9.43
2019-04-16T05:56:13.729Z,8.53
2019-04-16T05:58:43.466Z,8.53
2019-04-16T06:01:19.708Z,10.57
2019-04-16T06:03:52.987Z,8.50
2019-04-16T06:06:20.884Z,10.03
2019-04-16T06:08:50.591Z,9.07
2019-04-16T06:11:28.142Z,8.77
2019-04-16T06:14:05.071Z,8.73
2019-04-16T06:16:53.374Z,9.10
2019-04-16T06:19:43.858Z,9.77
2019-04-16T06:22:36.732Z,9.20
2019-04-16T06:25:24.430Z,9.47
2019-04-16T06:28:19.129Z,7.97
2019-04-16T06:31:05.702Z,9.40
2019-04-16T06:33:52.950Z,9.63
2019-04-16T06:36:33.278Z,10.03
2019-04-16T06:39:18.674Z,9.03
2019-04-16T06:42:05.999Z,10.00
2019-04-16T06:44:42.236Z,9.27
2019-04-16T06:47:32.643Z,9.17
2019-04-16T06:50:12.378Z,9.00
2019-04-16T06:52:59.936Z,9.23
2019-04-16T06:55:51.736Z,9.57
2019-04-16T06:58:30.197Z,9.07
2019-04-16T07:01:22.062Z,10.23
2019-04-16T07:04:02.266Z,9.10
2019-04-16T07:06:54.040Z,9.30
2019-04-16T07:09:50.254Z,8.60
2019-04-16T07:12:23.454Z,8.93
2019-04-16T07:14:53.592Z,8.43
2019-04-16T07:17:23.276Z,9.40
2019-04-16T07:19:53.098Z,9.17
2019-04-16T07:22:22.753Z,8.03
2019-04-16T07:24:56.595Z,9.00
2019-04-16T07:27:35.035Z,8.20
2019-04-16T07:30:11.454Z,10.00
2019-04-16T07:32:51.212Z,8.77
2019-04-16T07:35:58.664Z,9.40
2019-04-16T07:38:35.144Z,9.27
2019-04-16T07:41:33.809Z,8.60
2019-04-16T07:44:14.162Z,7.90
2019-04-16T07:46:52.548Z,9.20
2019-04-16T07:49:37.496Z,9.83
2019-04-16T07:52:25.051Z,10.70
2019-04-16T07:55:13.749Z,9.40
2019-04-16T07:57:43.584Z,10.37
2019-04-16T08:00:15.218Z,8.40
2019-04-16T08:02:44.899Z,9.23
2019-04-16T08:05:14.928Z,9.03
2019-04-16T08:07:44.680Z,9.23
2019-04-16T08:10:16.903Z,9.53
2019-04-16T08:12:51.273Z,8.93
2019-04-16T08:15:21.102Z,7.70
2019-04-16T08:17:50.816Z,9.13
2019-04-16T08:20:21.380Z,9.77
2019-04-16T08:22:53.629Z,8.70
2019-04-16T08:25:33.636Z,9.73
2019-04-16T08:27:59.605Z,10.17
2019-04-16T08:30:34.621Z,10.23
2019-04-16T08:33:00.912Z,9.90
2019-04-16T08:35:30.716Z,10.77
2019-04-16T08:38:00.371Z,9.17
2019-04-16T08:40:30.097Z,9.13
2019-04-16T08:42:59.775Z,10.47
2019-04-16T08:45:29.553Z,9.67
2019-04-16T08:47:59.257Z,10.37
2019-04-16T08:50:29.015Z,10.03
2019-04-16T08:52:58.761Z,10.83
2019-04-16T08:55:28.525Z,9.40
2019-04-16T08:57:58.818Z,9.97
2019-04-16T09:00:33.311Z,9.53
2019-04-16T09:03:03.655Z,8.87
2019-04-16T09:05:34.199Z,10.90
2019-04-16T09:08:16.072Z,9.50
2019-04-16T09:10:47.322Z,10.03
2019-04-16T09:13:21.437Z,9.20
2019-04-16T09:15:52.082Z,9.50
2019-04-16T09:18:41.927Z,9.80
2019-04-16T09:21:12.286Z,9.83
2019-04-16T09:23:45.955Z,9.43
2019-04-16T09:26:31.501Z,9.90
2019-04-16T09:29:19.443Z,9.27
2019-04-16T09:32:06.317Z,9.80
2019-04-16T09:35:08.830Z,9.73
2019-04-16T09:38:15.462Z,8.97
2019-04-16T09:41:13.653Z,9.83
2019-04-16T09:43:47.527Z,8.67
2019-04-16T09:46:25.761Z,9.57
2019-04-16T09:48:52.447Z,9.43
2019-04-16T09:51:25.263Z,9.73
2019-04-16T09:54:04.287Z,10.80
2019-04-16T09:56:33.971Z,9.97
2019-04-16T09:59:18.336Z,9.70
2019-04-16T10:02:41.317Z,9.90
2019-04-16T10:05:11.648Z,10.07
2019-04-16T10:07:41.718Z,9.37
2019-04-16T10:17:32.679Z,10.93
2019-04-16T10:20:01.714Z,11.13
2019-04-16T10:22:33.119Z,10.87
2019-04-16T10:25:11.639Z,10.83
2019-04-16T10:27:51.568Z,10.43
2019-04-16T10:30:34.149Z,10.30
2019-04-16T10:33:04.756Z,10.50
2019-04-16T10:35:34.718Z,12.03
2019-04-16T10:38:31.856Z,10.60
2019-04-16T10:41:05.478Z,10.27
2019-04-16T10:43:50.824Z,9.63
2019-04-16T10:46:35.893Z,10.47
2019-04-16T10:49:53.139Z,12.07
2019-04-16T10:52:54.085Z,10.40
2019-04-16T10:55:41.391Z,10.80
2019-04-16T10:58:39.115Z,12.37
2019-04-16T11:01:15.240Z,11.20
2019-04-16T11:03:49.432Z,11.60
2019-04-16T11:06:41.891Z,11.03
2019-04-16T11:09:11.587Z,11.57
2019-04-16T11:11:41.446Z,12.00
2019-04-16T11:14:11.267Z,11.87
2019-04-16T11:16:43.240Z,11.43
2019-04-16T11:19:13.103Z,10.40
2019-04-16T11:21:42.976Z,11.83
2019-04-16T11:24:12.772Z,13.03
2019-04-16T11:26:52.998Z,11.33
2019-04-16T11:29:22.950Z,11.37
2019-04-16T11:31:53.987Z,12.47
2019-04-16T11:34:38.512Z,11.90
2019-04-16T11:37:09.306Z,12.07
2019-04-16T11:40:16.986Z,13.00
2019-04-16T11:50:25.618Z,12.80
2019-04-16T11:52:58.193Z,12.93
2019-04-16T11:55:33.192Z,11.70
2019-04-16T11:58:18.639Z,11.50
2019-04-16T12:04:59.365Z,11.47
2019-04-16T12:07:41.606Z,12.57
2019-04-16T12:10:30.493Z,10.97
2019-04-16T12:13:42.659Z,12.87
2019-04-16T12:16:53.966Z,11.03
2019-04-16T12:19:44.706Z,12.80
2019-04-16T12:22:19.530Z,11.63
2019-04-16T12:24:56.802Z,12.30
2019-04-16T12:27:44.169Z,13.97
2019-04-16T12:30:37.483Z,13.43
2019-04-16T12:33:25.000Z,12.97
2019-04-16T12:36:16.477Z,12.87
2019-04-16T12:39:03.639Z,12.60
2019-04-16T12:41:45.626Z,13.53
2019-04-16T12:44:44.189Z,13.50
2019-04-16T12:47:14.565Z,13.73
2019-04-16T12:50:03.103Z,13.43
2019-04-16T12:53:04.073Z,14.00
2019-04-16T13:02:59.793Z,12.20
2019-04-16T13:06:18.551Z,14.13
2019-04-16T13:09:11.505Z,14.47
2019-04-16T13:16:14.312Z,14.33
2019-04-16T13:19:13.149Z,12.60
2019-04-16T13:25:42.738Z,13.93
2019-04-16T13:29:34.625Z,13.37
2019-04-16T13:37:30.275Z,13.10
2019-04-16T13:48:15.422Z,14.20
2019-04-16T13:55:10.569Z,13.43
2019-04-16T14:01:50.960Z,14.50
2019-04-16T14:04:41.556Z,14.70
2019-04-16T14:07:20.657Z,15.50
2019-04-16T14:09:51.804Z,14.50
2019-04-16T14:12:33.130Z,15.17
2019-04-16T14:14:54.937Z,14.30
2019-04-16T14:17:28.768Z,14.83
2019-04-16T14:19:59.164Z,15.90
2019-04-16T14:22:29.562Z,15.27
2019-04-16T14:24:59.601Z,15.70
2019-04-16T14:27:29.719Z,16.20
2019-04-16T14:30:00.164Z,15.67
2019-04-16T14:32:30.289Z,14.57
2019-04-16T14:35:03.231Z,15.60
2019-04-16T14:37:33.513Z,14.70
2019-04-16T14:40:16.092Z,14.50
2019-04-16T14:42:45.941Z,15.53
2019-04-16T14:45:53.473Z,14.97
2019-04-16T14:48:10.163Z,14.90
2019-04-16T14:50:40.747Z,15.80
2019-04-16T14:53:10.579Z,15.87
2019-04-16T14:55:59.755Z,16.87
2019-04-16T14:58:46.196Z,16.00
2019-04-16T15:01:33.436Z,14.97
2019-04-16T15:04:21.104Z,14.47
2019-04-16T15:07:12.381Z,15.17
2019-04-16T15:10:00.890Z,16.43
2019-04-16T15:12:50.482Z,16.43
2019-04-16T15:15:30.502Z,16.63
2019-04-16T15:18:22.006Z,15.83
2019-04-16T15:21:19.822Z,15.67
2019-04-16T15:24:07.252Z,16.20
2019-04-16T15:27:14.120Z,14.83
2019-04-16T15:30:05.645Z,17.03
2019-04-16T15:33:04.968Z,14.83
2019-04-16T15:35:38.238Z,17.17
2019-04-16T15:38:17.112Z,16.13
2019-04-16T15:40:47.451Z,16.77
2019-04-16T15:43:42.004Z,18.00
2019-04-16T15:46:29.078Z,14.83
2019-04-16T15:49:11.074Z,15.77
2019-04-16T15:52:01.398Z,16.70
2019-04-16T15:54:55.729Z,15.77
2019-04-16T15:57:59.412Z,14.83
2019-04-16T16:00:46.619Z,16.43
2019-04-16T16:03:35.394Z,16.43
2019-04-16T16:06:20.391Z,14.80
2019-04-16T16:09:20.262Z,14.17
2019-04-16T16:12:22.367Z,15.07
2019-04-16T16:14:53.088Z,15.60
2019-04-16T16:17:23.391Z,16.60
2019-04-16T16:19:53.408Z,16.83
2019-04-16T16:22:23.307Z,15.43
2019-04-16T16:24:53.005Z,15.57
2019-04-16T16:27:22.817Z,15.57
2019-04-16T16:29:52.668Z,15.37
2019-04-16T16:32:22.820Z,15.50
2019-04-16T16:34:52.731Z,14.90
2019-04-16T16:37:22.502Z,14.67
2019-04-16T16:39:52.618Z,14.57
2019-04-16T16:42:22.607Z,15.17
2019-04-16T16:44:52.418Z,16.53
2019-04-16T16:47:34.693Z,17.23
2019-04-16T16:50:07.551Z,14.93
2019-04-16T16:53:04.963Z,14.67
2019-04-16T16:55:47.901Z,16.40
2019-04-16T16:58:39.936Z,16.17
2019-04-16T17:01:35.212Z,15.90
2019-04-16T17:04:12.796Z,14.23
2019-04-16T17:06:42.709Z,15.47
2019-04-16T17:09:29.747Z,14.57
2019-04-16T17:11:58.670Z,16.43
2019-04-16T17:14:28.573Z,16.13
2019-04-16T17:17:11.750Z,16.33
2019-04-16T17:19:29.945Z,14.83
2019-04-16T17:21:59.736Z,16.67
2019-04-16T17:24:29.631Z,15.83
2019-04-16T17:26:59.585Z,17.37
2019-04-16T17:29:29.341Z,15.90
2019-04-16T17:31:59.593Z,15.67
2019-04-16T17:34:29.310Z,15.07
2019-04-16T17:36:59.114Z,14.87
2019-04-16T17:40:00.122Z,17.53
2019-04-16T17:42:36.991Z,16.13
2019-04-16T17:45:43.771Z,17.00
2019-04-16T17:48:41.713Z,15.77
2019-04-16T17:51:36.545Z,13.50
2019-04-16T17:54:23.839Z,15.37
2019-04-16T17:57:12.383Z,16.57
2019-04-16T18:00:07.124Z,15.47
2019-04-16T18:02:54.712Z,17.10
2019-04-16T18:05:35.260Z,15.70
2019-04-16T18:08:32.782Z,16.23
2019-04-16T18:11:16.597Z,15.90
2019-04-16T18:14:10.448Z,16.53
2019-04-16T18:16:55.958Z,15.30
2019-04-16T18:19:44.975Z,15.13
2019-04-16T18:22:21.417Z,14.17
2019-04-16T18:25:08.683Z,15.20
2019-04-16T19:04:04.185Z,16.03
2019-04-16T19:06:33.941Z,16.43
2019-04-16T19:09:04.697Z,17.67
2019-04-16T19:11:34.921Z,16.97
2019-04-16T19:14:04.765Z,16.63
2019-04-16T19:16:34.640Z,16.67
2019-04-16T19:19:04.672Z,17.67
2019-04-16T19:21:34.561Z,16.10
2019-04-16T19:24:04.278Z,16.10
2019-04-16T19:26:34.160Z,17.53
2019-04-16T19:29:05.909Z,15.90
2019-04-16T19:31:35.418Z,16.13
2019-04-16T19:34:08.509Z,22.73
2019-04-16T19:36:36.892Z,20.00
2019-04-16T19:39:13.527Z,16.47
2019-04-16T19:41:41.286Z,16.47
2019-04-16T19:44:10.561Z,17.93
2019-04-16T19:46:40.392Z,18.53
2019-04-16T19:49:11.599Z,17.50
2019-04-16T19:51:42.014Z,18.03
2019-04-16T19:54:12.044Z,14.67
2019-04-16T19:56:42.040Z,16.30
2019-04-16T19:59:12.286Z,17.67
2019-04-16T20:01:42.026Z,17.00
2019-04-16T20:04:12.186Z,16.13
2019-04-16T20:06:42.212Z,16.03
2019-04-16T20:09:11.979Z,17.90
2019-04-16T20:11:42.303Z,17.43
2019-04-16T20:14:12.076Z,16.17
2019-04-16T20:16:41.892Z,14.57
2019-04-16T20:19:12.021Z,16.37
2019-04-16T20:21:41.960Z,13.67
2019-04-16T20:24:11.906Z,13.27
2019-04-16T20:26:42.054Z,17.33
2019-04-16T20:32:53.516Z,14.97
2019-04-16T20:35:23.399Z,14.87
2019-04-16T20:37:54.158Z,14.27
2019-04-16T20:40:24.543Z,15.30
2019-04-16T20:42:54.361Z,12.40
2019-04-16T20:45:24.136Z,18.20
2019-04-16T20:47:53.942Z,17.07
2019-04-16T20:50:23.738Z,18.33
2019-04-16T20:52:53.751Z,15.47
2019-04-16T20:55:24.090Z,17.10
2019-04-16T20:57:55.330Z,18.77
2019-04-16T21:00:29.043Z,17.03
2019-04-16T21:03:02.298Z,15.27
2019-04-16T21:05:35.422Z,16.20
2019-04-16T21:08:01.655Z,11.63
2019-04-16T21:10:35.361Z,17.10
2019-04-16T21:13:02.833Z,16.93
2019-04-16T21:15:32.668Z,17.03
2019-04-16T21:18:02.606Z,14.77
2019-04-16T21:20:32.395Z,16.83
2019-04-16T21:23:03.499Z,15.87
2019-04-16T21:25:33.957Z,15.87
2019-04-16T21:28:10.423Z,16.37
2019-04-16T21:30:43.381Z,16.20
2019-04-16T21:33:20.561Z,14.47
2019-04-16T21:35:53.054Z,18.03
2019-04-16T21:38:27.461Z,13.63
2019-04-16T21:40:57.460Z,15.67
2019-04-16T21:43:27.623Z,18.47
2019-04-16T21:45:57.502Z,13.17
2019-04-16T21:48:27.801Z,14.67
2019-04-16T21:50:57.745Z,18.07
2019-04-16T21:53:27.948Z,19.57
2019-04-16T21:55:58.862Z,13.03
2019-04-16T21:58:28.734Z,19.27
2019-04-16T22:01:16.685Z,19.73
2019-04-16T22:03:51.239Z,20.00
2019-04-16T22:06:21.122Z,16.87
2019-04-16T22:08:51.069Z,15.57
2019-04-16T22:11:21.012Z,18.00
2019-04-16T22:13:51.395Z,18.67
2019-04-16T22:16:21.578Z,20.83
2019-04-16T22:18:51.263Z,18.67
2019-04-16T22:21:21.258Z,17.60
2019-04-16T22:23:51.163Z,18.97
2019-04-16T22:26:20.975Z,21.97
2019-04-16T22:28:50.806Z,16.67
2019-04-16T22:31:20.816Z,20.40
2019-04-16T22:33:52.023Z,17.67
2019-04-16T22:36:22.150Z,22.37
2019-04-16T22:38:58.368Z,16.50
2019-04-16T22:41:36.929Z,18.87
2019-04-16T22:44:19.771Z,18.53
2019-04-16T22:46:53.720Z,19.23
2019-04-16T22:49:23.442Z,17.63
2019-04-16T22:51:53.579Z,20.57
2019-04-16T22:54:23.511Z,20.27
2019-04-16T22:57:04.867Z,19.97
2019-04-16T22:59:39.161Z,18.10
2019-04-16T23:02:13.767Z,17.50
2019-04-16T23:04:43.613Z,19.30
2019-04-16T23:07:13.440Z,19.60
2019-04-16T23:09:45.773Z,16.93
2019-04-16T23:12:14.686Z,21.33
2019-04-16T23:14:44.516Z,19.67
2019-04-16T23:17:14.386Z,17.80
2019-04-16T23:19:44.185Z,19.57
2019-04-16T23:22:15.332Z,18.67
2019-04-16T23:24:45.435Z,19.57
2019-04-16T23:27:15.158Z,19.13
2019-04-16T23:29:47.513Z,17.47
2019-04-16T23:32:16.451Z,16.00
2019-04-16T23:34:46.257Z,17.43
2019-04-16T23:37:16.131Z,15.87
2019-04-16T23:39:45.795Z,17.57
2019-04-16T23:42:20.245Z,18.40
2019-04-16T23:45:08.332Z,21.37
2019-04-16T23:48:15.564Z,18.93
2019-04-16T23:51:03.113Z,16.90
2019-04-16T23:53:54.641Z,18.63
2019-04-16T23:56:38.159Z,16.27
